createdAt,value
2018-03-22T00:01:51.531Z,8.63
2018-03-22T00:04:19.084Z,9.60
2018-03-22T00:06:46.646Z,8.85
2018-03-22T00:09:14.187Z,7.18
2018-03-22T00:11:41.824Z,5.10
2018-03-22T00:14:09.402Z,5.95
2018-03-22T00:16:37.011Z,5.12
2018-03-22T00:19:04.578Z,5.15
2018-03-22T00:21:32.128Z,3.90
2018-03-22T00:24:00.824Z,4.50
2018-03-22T00:26:28.378Z,4.72
2018-03-22T00:28:56.677Z,4.40
2018-03-22T00:31:24.206Z,4.25
2018-03-22T00:33:51.788Z,4.57
2018-03-22T00:36:20.111Z,4.30
2018-03-22T00:38:47.663Z,4.97
2018-03-22T00:41:15.227Z,4.32
2018-03-22T00:43:42.874Z,4.40
2018-03-22T00:46:11.182Z,4.80
2018-03-22T00:48:38.753Z,4.12
2018-03-22T00:51:06.299Z,5.15
2018-03-22T00:53:33.850Z,4.57
2018-03-22T00:56:02.157Z,4.18
2018-03-22T00:58:29.683Z,4.05
2018-03-22T01:00:57.255Z,4.65
2018-03-22T01:03:24.822Z,4.22
2018-03-22T01:05:52.338Z,4.80
2018-03-22T01:08:19.884Z,4.12
2018-03-22T01:10:47.533Z,5.35
2018-03-22T01:13:15.906Z,4.30
2018-03-22T01:15:43.448Z,4.20
2018-03-22T01:18:10.987Z,4.85
2018-03-22T01:20:38.564Z,5.20
2018-03-22T01:23:06.113Z,5.12
2018-03-22T01:25:33.663Z,5.05
2018-03-22T01:28:01.177Z,5.57
2018-03-22T01:30:36.528Z,6.12
2018-03-22T01:33:04.073Z,5.78
2018-03-22T01:35:31.615Z,6.05
2018-03-22T01:37:59.296Z,5.93
2018-03-22T01:40:26.871Z,5.93
2018-03-22T01:42:54.631Z,5.47
2018-03-22T01:45:22.214Z,5.55
2018-03-22T01:47:49.763Z,6.53
2018-03-22T01:50:17.310Z,6.32
2018-03-22T01:52:56.580Z,5.47
2018-03-22T01:55:24.161Z,5.70
2018-03-22T01:57:51.751Z,5.65
2018-03-22T02:00:20.084Z,6.18
2018-03-22T02:02:47.613Z,5.95
2018-03-22T02:05:15.331Z,6.30
2018-03-22T02:07:42.867Z,6.10
2018-03-22T02:10:10.484Z,6.35
2018-03-22T02:12:38.016Z,6.90
2018-03-22T02:15:05.555Z,7.40
2018-03-22T02:17:33.156Z,6.62
2018-03-22T02:20:01.471Z,6.60
2018-03-22T02:22:29.782Z,7.20
2018-03-22T02:24:57.357Z,6.75
2018-03-22T02:27:24.921Z,6.78
2018-03-22T02:29:52.630Z,7.43
2018-03-22T02:32:20.326Z,8.10
2018-03-22T02:34:48.717Z,7.30
2018-03-22T02:37:17.179Z,7.37
2018-03-22T02:39:44.770Z,6.85
2018-03-22T02:42:12.332Z,8.15
2018-03-22T02:44:40.642Z,7.47
2018-03-22T02:47:08.174Z,8.07
2018-03-22T02:49:36.571Z,8.57
2018-03-22T02:52:04.447Z,7.25
2018-03-22T02:54:32.043Z,8.52
2018-03-22T02:56:59.579Z,8.98
2018-03-22T02:59:27.108Z,8.50
2018-03-22T03:01:54.768Z,7.85
2018-03-22T03:04:22.358Z,8.48
2018-03-22T03:06:50.675Z,8.20
2018-03-22T03:09:18.242Z,8.70
2018-03-22T03:11:45.816Z,7.57
2018-03-22T03:14:13.858Z,8.77
2018-03-22T03:16:42.158Z,7.43
2018-03-22T03:19:09.697Z,7.82
2018-03-22T03:21:38.096Z,7.72
2018-03-22T03:24:05.640Z,10.32
2018-03-22T03:26:33.954Z,10.50
2018-03-22T03:29:01.524Z,9.40
2018-03-22T03:31:29.059Z,9.10
2018-03-22T03:33:57.353Z,8.90
2018-03-22T03:36:25.668Z,8.63
2018-03-22T03:38:53.236Z,8.38
2018-03-22T03:41:20.844Z,8.82
2018-03-22T03:43:48.469Z,7.80
2018-03-22T03:46:16.014Z,7.25
2018-03-22T03:48:43.544Z,8.48
2018-03-22T03:51:11.113Z,8.68
2018-03-22T03:53:38.660Z,8.55
2018-03-22T03:56:06.195Z,7.87
2018-03-22T03:58:33.731Z,8.40
2018-03-22T04:01:01.271Z,7.53
2018-03-22T04:03:28.837Z,8.32
2018-03-22T04:05:56.381Z,7.85
2018-03-22T04:08:23.918Z,9.10
2018-03-22T04:10:51.466Z,8.20
2018-03-22T04:13:18.997Z,8.50
2018-03-22T04:15:46.638Z,7.95
2018-03-22T04:18:14.182Z,7.93
2018-03-22T04:20:41.733Z,7.40
2018-03-22T04:23:09.300Z,8.50
2018-03-22T04:25:36.862Z,8.27
2018-03-22T04:28:04.406Z,8.70
2018-03-22T04:30:32.729Z,8.82
2018-03-22T04:33:00.270Z,8.43
2018-03-22T04:35:27.844Z,8.57
2018-03-22T04:37:55.372Z,8.02
2018-03-22T04:40:22.938Z,9.07
2018-03-22T04:42:50.581Z,7.82
2018-03-22T04:45:18.120Z,8.05
2018-03-22T04:47:45.664Z,8.82
2018-03-22T04:50:13.203Z,8.30
2018-03-22T04:52:41.564Z,8.23
2018-03-22T04:55:09.145Z,8.90
2018-03-22T04:57:36.684Z,8.55
2018-03-22T05:00:04.215Z,8.35
2018-03-22T05:02:31.783Z,8.60
2018-03-22T05:04:59.403Z,7.72
2018-03-22T05:07:26.938Z,8.07
2018-03-22T05:09:54.496Z,8.60
2018-03-22T05:12:22.039Z,8.23
2018-03-22T05:14:49.547Z,8.63
2018-03-22T05:17:17.108Z,8.50
2018-03-22T05:19:44.651Z,8.77
2018-03-22T05:22:12.192Z,8.48
2018-03-22T05:24:39.856Z,9.05
2018-03-22T05:27:07.411Z,9.02
2018-03-22T05:29:36.102Z,9.27
2018-03-22T05:32:04.430Z,9.48
2018-03-22T05:34:31.977Z,9.43
2018-03-22T05:36:59.693Z,10.00
2018-03-22T05:39:27.262Z,9.60
2018-03-22T05:41:54.845Z,9.85
2018-03-22T05:44:22.369Z,9.18
2018-03-22T05:46:49.918Z,9.48
2018-03-22T05:49:17.493Z,9.52
2018-03-22T05:51:45.866Z,9.23
2018-03-22T05:54:13.782Z,10.23
2018-03-22T05:56:41.307Z,10.10
2018-03-22T05:59:08.853Z,9.77
2018-03-22T06:01:36.390Z,10.25
2018-03-22T06:04:03.984Z,9.63
2018-03-22T06:06:31.533Z,9.32
2018-03-22T06:08:59.848Z,10.10
2018-03-22T06:11:27.384Z,9.63
2018-03-22T06:13:55.706Z,10.98
2018-03-22T06:16:23.340Z,10.57
2018-03-22T06:18:51.272Z,10.52
2018-03-22T06:21:18.833Z,10.00
2018-03-22T06:23:46.369Z,10.82
2018-03-22T06:26:13.958Z,10.10
2018-03-22T06:28:41.555Z,10.18
2018-03-22T06:31:09.119Z,10.30
2018-03-22T06:33:36.662Z,10.50
2018-03-22T06:36:04.337Z,11.40
2018-03-22T06:38:31.896Z,10.75
2018-03-22T06:40:59.434Z,10.95
2018-03-22T06:43:27.101Z,11.32
2018-03-22T06:45:54.637Z,10.80
2018-03-22T06:48:22.940Z,11.10
2018-03-22T06:50:50.541Z,11.52
2018-03-22T06:53:18.094Z,12.27
2018-03-22T06:55:45.653Z,11.85
2018-03-22T06:58:13.206Z,11.70
2018-03-22T07:00:40.743Z,12.05
2018-03-22T07:03:08.289Z,11.35
2018-03-22T07:05:35.837Z,12.50
2018-03-22T07:08:03.390Z,11.95
2018-03-22T07:10:31.333Z,11.93
2018-03-22T07:12:58.957Z,12.90
2018-03-22T07:15:26.496Z,13.00
2018-03-22T07:17:54.034Z,13.38
2018-03-22T07:20:21.589Z,13.48
2018-03-22T07:22:49.108Z,13.40
2018-03-22T07:25:16.668Z,13.70
2018-03-22T07:27:44.201Z,13.20
2018-03-22T07:30:11.731Z,13.10
2018-03-22T07:32:40.069Z,13.15
2018-03-22T07:35:07.601Z,13.23
2018-03-22T07:37:35.132Z,13.57
2018-03-22T07:40:02.640Z,13.25
2018-03-22T07:42:30.185Z,13.82
2018-03-22T07:44:58.850Z,14.57
2018-03-22T07:47:26.384Z,14.27
2018-03-22T07:49:53.939Z,14.18
2018-03-22T07:52:21.505Z,13.82
2018-03-22T07:54:49.025Z,13.48
2018-03-22T07:57:17.342Z,13.98
2018-03-22T07:59:44.861Z,14.07
2018-03-22T08:02:12.475Z,14.18
2018-03-22T08:04:39.990Z,14.90
2018-03-22T08:07:07.569Z,14.95
2018-03-22T08:09:35.890Z,15.63
2018-03-22T08:12:03.500Z,14.82
2018-03-22T08:14:31.031Z,14.13
2018-03-22T08:16:58.590Z,15.18
2018-03-22T08:19:26.258Z,14.63
2018-03-22T08:21:53.820Z,14.90
2018-03-22T08:24:21.355Z,14.30
2018-03-22T08:26:49.654Z,15.13
2018-03-22T08:29:17.223Z,14.90
2018-03-22T08:31:44.748Z,15.25
2018-03-22T08:34:12.304Z,15.32
2018-03-22T08:36:39.865Z,14.52
2018-03-22T08:39:07.459Z,15.43
2018-03-22T08:41:35.774Z,14.63
2018-03-22T08:44:03.306Z,15.00
2018-03-22T08:46:31.637Z,15.38
2018-03-22T08:48:59.175Z,14.30
2018-03-22T08:51:26.769Z,16.27
2018-03-22T08:53:54.319Z,15.52
2018-03-22T08:56:21.900Z,15.30
2018-03-22T08:58:50.220Z,15.45
2018-03-22T09:01:17.784Z,15.82
2018-03-22T09:03:45.318Z,15.35
2018-03-22T09:06:12.849Z,15.98
2018-03-22T09:08:40.411Z,15.93
2018-03-22T09:11:07.992Z,15.38
2018-03-22T09:13:35.551Z,15.57
2018-03-22T09:16:03.259Z,19.08
2018-03-22T09:18:30.809Z,16.65
2018-03-22T09:20:58.412Z,15.02
2018-03-22T09:23:26.074Z,17.70
2018-03-22T09:25:53.617Z,21.52
2018-03-22T09:28:21.202Z,19.55
2018-03-22T09:30:48.821Z,25.58
2018-03-22T09:33:16.365Z,21.48
2018-03-22T09:35:44.705Z,22.33
2018-03-22T09:38:12.344Z,21.58
2018-03-22T09:40:39.923Z,23.00
2018-03-22T09:43:07.464Z,21.73
2018-03-22T09:45:34.999Z,19.55
2018-03-22T09:48:03.308Z,21.08
2018-03-22T09:50:30.849Z,17.05
2018-03-22T09:52:59.154Z,17.98
2018-03-22T09:55:26.722Z,16.15
2018-03-22T09:57:54.268Z,22.87
2018-03-22T10:00:22.587Z,18.92
2018-03-22T10:02:50.195Z,18.52
2018-03-22T10:05:17.658Z,20.48
2018-03-22T10:07:45.190Z,19.20
2018-03-22T10:10:12.731Z,21.65
2018-03-22T10:12:40.608Z,19.50
2018-03-22T10:15:08.137Z,18.12
2018-03-22T10:17:35.767Z,18.10
2018-03-22T10:20:04.122Z,19.23
2018-03-22T10:22:31.661Z,19.10
2018-03-22T10:25:00.147Z,20.48
2018-03-22T10:27:28.458Z,22.02
2018-03-22T10:29:55.996Z,21.17
2018-03-22T10:32:24.283Z,20.20
2018-03-22T10:34:52.606Z,20.45
2018-03-22T10:37:20.184Z,21.30
2018-03-22T10:39:47.709Z,20.95
2018-03-22T10:42:15.261Z,20.20
2018-03-22T10:44:43.562Z,19.65
2018-03-22T10:47:11.101Z,17.50
2018-03-22T10:49:38.647Z,17.35
2018-03-22T10:52:06.256Z,17.30
2018-03-22T10:54:34.563Z,16.98
2018-03-22T10:57:02.099Z,18.08
2018-03-22T10:59:30.401Z,17.60
2018-03-22T11:02:00.781Z,15.63
2018-03-22T11:04:28.326Z,16.80
2018-03-22T11:06:55.864Z,16.02
2018-03-22T11:09:23.398Z,16.90
2018-03-22T11:11:51.702Z,18.05
2018-03-22T11:14:19.263Z,17.15
2018-03-22T11:16:46.879Z,18.02
2018-03-22T11:19:14.424Z,18.15
2018-03-22T11:21:41.954Z,18.87
2018-03-22T11:24:10.269Z,19.17
2018-03-22T11:26:37.849Z,17.85
2018-03-22T11:29:05.584Z,18.42
2018-03-22T11:31:33.122Z,17.75
2018-03-22T11:34:01.435Z,18.12
2018-03-22T11:36:28.968Z,19.48
2018-03-22T11:38:57.310Z,19.27
2018-03-22T11:41:24.851Z,18.70
2018-03-22T11:43:52.388Z,20.35
2018-03-22T11:46:20.710Z,19.55
2018-03-22T11:48:48.234Z,20.23
2018-03-22T11:51:16.585Z,20.30
2018-03-22T11:53:44.181Z,18.40
2018-03-22T11:56:11.659Z,19.50
2018-03-22T11:58:39.212Z,18.75
2018-03-22T12:01:07.498Z,19.05
2018-03-22T12:03:35.857Z,19.83
2018-03-22T12:06:03.375Z,19.27
2018-03-22T12:08:30.915Z,17.77
2018-03-22T12:10:59.234Z,18.52
2018-03-22T12:13:26.770Z,18.52
2018-03-22T12:15:54.349Z,18.85
2018-03-22T12:18:21.898Z,18.60
2018-03-22T12:20:50.198Z,20.62
2018-03-22T12:23:17.828Z,19.95
2018-03-22T12:25:46.182Z,19.08
2018-03-22T12:28:14.548Z,19.52
2018-03-22T12:30:42.144Z,19.52
2018-03-22T12:33:09.686Z,20.15
2018-03-22T12:35:37.241Z,18.75
2018-03-22T12:38:04.778Z,18.90
2018-03-22T12:40:33.111Z,19.05
2018-03-22T12:43:00.643Z,17.08
2018-03-22T12:45:28.298Z,19.15
2018-03-22T12:47:55.860Z,19.17
2018-03-22T12:50:24.307Z,18.37
2018-03-22T12:52:51.892Z,18.77
2018-03-22T12:55:19.547Z,17.85
2018-03-22T12:57:47.078Z,19.17
2018-03-22T13:00:14.642Z,18.40
2018-03-22T13:02:42.191Z,19.33
2018-03-22T13:05:09.737Z,19.77
2018-03-22T13:07:38.054Z,20.60
2018-03-22T13:10:05.582Z,20.52
2018-03-22T13:12:33.917Z,21.87
2018-03-22T13:15:01.454Z,20.42
2018-03-22T13:17:29.035Z,23.33
2018-03-22T13:19:56.659Z,22.10
2018-03-22T13:22:27.915Z,22.30
2018-03-22T13:24:56.217Z,22.52
2018-03-22T13:27:24.207Z,22.40
2018-03-22T13:29:52.698Z,22.55
2018-03-22T13:32:20.399Z,22.08
2018-03-22T13:34:47.949Z,23.05
2018-03-22T13:37:15.490Z,22.70
2018-03-22T13:39:43.281Z,23.58
2018-03-22T13:42:10.897Z,22.92
2018-03-22T13:44:39.201Z,45.10
2018-03-22T13:47:06.774Z,117.28
2018-03-22T13:49:34.409Z,29.27
2018-03-22T13:52:02.715Z,25.65
2018-03-22T13:54:30.350Z,23.00
2018-03-22T13:56:58.781Z,22.37
2018-03-22T13:59:26.474Z,23.45
2018-03-22T14:01:54.006Z,23.55
2018-03-22T14:04:21.576Z,23.70
2018-03-22T14:06:49.185Z,24.17
2018-03-22T14:09:16.776Z,22.45
2018-03-22T14:11:44.391Z,23.52
2018-03-22T14:14:11.922Z,22.30
2018-03-22T14:16:39.512Z,22.90
2018-03-22T14:19:07.073Z,22.92
2018-03-22T14:21:34.623Z,23.10
2018-03-22T14:24:02.463Z,22.40
2018-03-22T14:26:30.023Z,24.15
2018-03-22T14:28:57.582Z,23.05
2018-03-22T14:31:25.139Z,23.38
2018-03-22T14:33:52.700Z,24.42
2018-03-22T14:36:20.247Z,25.30
2018-03-22T14:38:48.671Z,22.27
2018-03-22T14:41:16.235Z,21.42
2018-03-22T14:43:43.946Z,22.75
2018-03-22T14:46:11.538Z,24.30
2018-03-22T14:48:39.080Z,23.35
2018-03-22T14:51:06.615Z,24.40
2018-03-22T14:53:35.078Z,25.00
2018-03-22T14:56:02.659Z,24.27
2018-03-22T14:58:30.208Z,23.30
2018-03-22T15:00:57.753Z,22.55
2018-03-22T15:03:25.314Z,22.90
2018-03-22T15:05:52.925Z,24.33
2018-03-22T15:08:21.281Z,28.50
2018-03-22T15:10:48.821Z,29.00
2018-03-22T15:13:16.374Z,21.40
2018-03-22T15:15:43.909Z,25.90
2018-03-22T15:18:12.203Z,22.25
2018-03-22T15:20:39.777Z,27.83
2018-03-22T15:23:07.317Z,24.65
2018-03-22T15:25:34.961Z,21.98
2018-03-22T15:28:02.479Z,23.95
2018-03-22T15:30:30.031Z,23.90
2018-03-22T15:32:58.366Z,24.45
2018-03-22T15:35:25.911Z,22.75
2018-03-22T15:37:53.461Z,22.52
2018-03-22T15:40:20.998Z,21.40
2018-03-22T15:42:49.393Z,20.33
2018-03-22T15:45:17.891Z,33.53
2018-03-22T15:47:45.820Z,28.35
2018-03-22T15:50:13.330Z,25.15
2018-03-22T15:52:40.983Z,36.17
2018-03-22T15:55:09.304Z,23.08
2018-03-22T15:57:37.177Z,32.53
2018-03-22T16:00:04.744Z,21.70
2018-03-22T16:02:33.012Z,28.38
2018-03-22T16:05:00.780Z,48.95
2018-03-22T16:07:28.320Z,37.85
2018-03-22T16:09:56.640Z,32.45
2018-03-22T16:12:24.224Z,26.00
2018-03-22T16:14:51.784Z,25.83
2018-03-22T16:17:19.321Z,23.52
2018-03-22T16:19:46.851Z,23.10
2018-03-22T16:22:14.425Z,30.30
2018-03-22T16:24:42.729Z,28.10
2018-03-22T16:27:10.308Z,23.85
2018-03-22T16:29:37.861Z,31.20
2018-03-22T16:32:05.399Z,26.37
2018-03-22T16:34:33.928Z,28.23
2018-03-22T16:37:01.516Z,28.23
2018-03-22T16:39:29.057Z,26.95
2018-03-22T16:41:57.593Z,25.95
2018-03-22T16:44:25.153Z,25.60
2018-03-22T16:46:52.740Z,29.60
2018-03-22T16:49:21.072Z,27.45
2018-03-22T16:51:48.661Z,24.25
2018-03-22T16:54:16.194Z,23.70
2018-03-22T16:56:43.768Z,22.50
2018-03-22T16:59:11.369Z,22.15
2018-03-22T17:01:38.950Z,21.75
2018-03-22T17:04:06.509Z,22.00
2018-03-22T17:06:34.071Z,20.48
2018-03-22T17:09:01.705Z,19.92
2018-03-22T17:11:29.294Z,21.40
2018-03-22T17:13:56.844Z,21.50
2018-03-22T17:16:24.447Z,19.60
2018-03-22T17:18:52.768Z,18.50
2018-03-22T17:21:20.319Z,18.08
2018-03-22T17:23:47.902Z,18.77
2018-03-22T17:26:16.227Z,20.50
2018-03-22T17:28:44.544Z,20.62
2018-03-22T17:31:12.099Z,22.50
2018-03-22T17:33:40.418Z,23.73
2018-03-22T17:36:08.010Z,24.37
2018-03-22T17:38:35.583Z,26.37
2018-03-22T17:41:03.111Z,25.50
2018-03-22T17:43:30.675Z,26.08
2018-03-22T17:45:58.245Z,26.92
2018-03-22T17:48:25.833Z,27.52
2018-03-22T17:50:53.374Z,28.48
2018-03-22T17:53:20.945Z,28.23
2018-03-22T17:55:48.512Z,29.67
2018-03-22T17:58:16.068Z,28.83
2018-03-22T18:00:43.630Z,30.52
2018-03-22T18:03:11.195Z,30.85
2018-03-22T18:05:38.769Z,30.95
2018-03-22T18:08:06.321Z,32.45
2018-03-22T18:10:33.892Z,31.23
2018-03-22T18:13:01.470Z,32.00
2018-03-22T18:15:29.043Z,32.67
2018-03-22T18:17:56.607Z,32.00
2018-03-22T18:20:24.928Z,32.40
2018-03-22T18:22:52.498Z,33.78
2018-03-22T18:25:20.521Z,35.15
2018-03-22T18:27:48.114Z,35.15
2018-03-22T18:30:15.820Z,32.83
2018-03-22T18:32:43.477Z,31.35
2018-03-22T18:35:11.043Z,33.03
2018-03-22T18:37:38.651Z,31.60
2018-03-22T18:40:06.344Z,32.70
2018-03-22T18:42:33.933Z,33.58
2018-03-22T18:45:01.514Z,30.67
2018-03-22T18:47:29.867Z,29.70
2018-03-22T18:49:57.518Z,32.88
2018-03-22T18:52:25.246Z,29.37
2018-03-22T18:54:53.710Z,30.05
2018-03-22T18:57:21.303Z,32.17
2018-03-22T18:59:49.636Z,30.88
2018-03-22T19:02:17.662Z,29.80
2018-03-22T19:04:45.312Z,29.55
2018-03-22T19:07:13.345Z,31.00
2018-03-22T19:09:41.084Z,28.80
2018-03-22T19:12:08.679Z,28.75
2018-03-22T19:14:36.407Z,30.90
2018-03-22T19:17:04.808Z,29.35
2018-03-22T19:19:32.443Z,29.50
2018-03-22T19:22:00.163Z,32.08
2018-03-22T19:24:28.477Z,30.20
2018-03-22T19:26:56.194Z,30.98
2018-03-22T19:29:23.955Z,29.95
2018-03-22T19:31:52.332Z,32.00
2018-03-22T19:34:20.746Z,30.25
2018-03-22T19:36:48.383Z,32.38
2018-03-22T19:39:16.771Z,34.78
2018-03-22T19:41:45.196Z,35.03
2018-03-22T19:44:13.078Z,45.22
2018-03-22T19:46:41.772Z,40.60
2018-03-22T19:49:10.424Z,39.33
2018-03-22T19:51:39.247Z,35.47
2018-03-22T19:54:09.707Z,36.50
2018-03-22T19:56:37.515Z,35.38
2018-03-22T19:59:06.097Z,34.95
2018-03-22T20:01:34.758Z,34.03
2018-03-22T20:04:02.613Z,39.17
2018-03-22T20:06:30.289Z,37.70
2018-03-22T20:08:57.948Z,40.00
2018-03-22T20:11:25.661Z,36.95
2018-03-22T20:13:54.048Z,34.70
2018-03-22T20:16:22.570Z,40.05
2018-03-22T20:18:50.333Z,39.53
2018-03-22T20:21:18.062Z,39.20
2018-03-22T20:23:46.241Z,42.35
2018-03-22T20:26:14.689Z,41.63
2018-03-22T20:28:43.370Z,37.42
2018-03-22T20:31:11.119Z,37.92
2018-03-22T20:33:38.880Z,39.92
2018-03-22T20:36:07.259Z,37.97
2018-03-22T20:38:35.640Z,38.47
2018-03-22T20:41:04.128Z,44.28
2018-03-22T20:43:32.751Z,39.55
2018-03-22T20:46:00.919Z,38.80
2018-03-22T20:48:28.529Z,39.67
2018-03-22T20:50:56.121Z,48.20
2018-03-22T20:53:23.736Z,47.53
2018-03-22T20:55:51.335Z,44.42
2018-03-22T20:58:18.980Z,39.35
2018-03-22T21:00:46.598Z,41.08
2018-03-22T21:03:14.981Z,39.55
2018-03-22T21:05:44.156Z,41.50
2018-03-22T21:08:11.731Z,41.65
2018-03-22T21:10:39.326Z,40.72
2018-03-22T21:13:07.657Z,37.63
2018-03-22T21:15:35.258Z,42.38
2018-03-22T21:18:03.209Z,42.85
2018-03-22T21:20:30.805Z,40.42
2018-03-22T21:22:59.146Z,47.28
2018-03-22T21:25:26.734Z,44.40
2018-03-22T21:27:54.305Z,45.08
2018-03-22T21:30:22.188Z,42.78
2018-03-22T21:32:49.992Z,38.55
2018-03-22T21:35:17.633Z,42.28
2018-03-22T21:37:46.028Z,42.28
2018-03-22T21:40:14.365Z,42.75
2018-03-22T21:42:41.996Z,40.30
2018-03-22T21:45:09.540Z,42.55
2018-03-22T21:47:37.880Z,42.80
2018-03-22T21:50:05.446Z,36.97
2018-03-22T21:52:44.907Z,44.97
2018-03-22T21:55:12.454Z,43.90
2018-03-22T21:57:40.013Z,46.00
2018-03-22T22:00:07.589Z,52.33
2018-03-22T22:02:35.178Z,45.15
2018-03-22T22:05:03.512Z,43.97
2018-03-22T22:07:31.087Z,47.80
2018-03-22T22:09:58.648Z,60.12
2018-03-22T22:12:26.287Z,47.60
2018-03-22T22:14:54.626Z,52.50
2018-03-22T22:17:22.168Z,51.92
2018-03-22T22:19:49.714Z,47.25
2018-03-22T22:22:17.281Z,48.08
2018-03-22T22:24:44.856Z,46.08
2018-03-22T22:27:12.409Z,50.65
2018-03-22T22:29:40.002Z,55.58
2018-03-22T22:32:07.630Z,58.80
2018-03-22T22:34:35.177Z,44.60
2018-03-22T22:37:03.523Z,47.30
2018-03-22T22:39:31.083Z,48.20
2018-03-22T22:41:58.656Z,48.40
2018-03-22T22:44:26.218Z,46.42
2018-03-22T22:46:53.768Z,50.65
2018-03-22T22:49:21.528Z,41.10
2018-03-22T22:51:49.074Z,48.65
2018-03-22T22:54:16.648Z,56.50
2018-03-22T22:56:44.290Z,75.68
2018-03-22T22:59:11.835Z,174.30
2018-03-22T23:01:39.416Z,71.10
2018-03-22T23:04:07.732Z,57.55
2018-03-22T23:06:35.293Z,49.90
2018-03-22T23:09:02.826Z,47.60
2018-03-22T23:11:31.157Z,63.28
2018-03-22T23:13:58.746Z,62.67
2018-03-22T23:16:26.290Z,49.85
2018-03-22T23:18:53.838Z,47.62
2018-03-22T23:21:21.391Z,52.25
2018-03-22T23:23:49.684Z,49.67
2018-03-22T23:26:17.560Z,60.60
2018-03-22T23:28:45.111Z,56.78
2018-03-22T23:31:13.539Z,51.28
2018-03-22T23:33:41.098Z,53.33
2018-03-22T23:36:08.635Z,50.83
2018-03-22T23:38:36.220Z,58.50
2018-03-22T23:41:03.993Z,59.40
2018-03-22T23:43:31.583Z,62.92
2018-03-22T23:45:59.110Z,49.50
2018-03-22T23:48:26.923Z,55.65
2018-03-22T23:50:54.489Z,57.25
2018-03-22T23:53:22.035Z,50.50
2018-03-22T23:55:49.582Z,49.08
2018-03-22T23:58:17.131Z,48.95
